Have a Safe July 4th! 

Flight Track Log - Related Links

Times and Time Zones

All times are in EDT time to prevent confusion due to time zone crossing. See the SWA920 flight status page for this flight to view local times or setup timezone preferences in your user account.

Time Position Orientation Groundspeed Altitude Reporting Facility
EDT Latitude Longitude Course Direction KTS MPH feet Rate Location/Type
Sun 05:52:28 PM 36.1500 -86.6333 39° Northeast 169 194 2,300  Level Nashville TRACON
Sun 05:53:28 PM 36.1833 -86.5667 58° Northeast 232 267 5,700 3,350 Climbing Nashville TRACON
Sun 05:54:28 PM 36.1667 -86.4833 104° East 285 328 9,000 3,176 Climbing Nashville TRACON
Sun 05:55:10 PM 36.1436 -86.4092 111° Southeast 294 338 11,100 2,471 Climbing Memphis Center
Sun 05:56:10 PM 36.1167 -86.2872 105° East 337 388 13,200 2,300 Climbing Memphis Center
Sun 05:57:10 PM 36.0897 -86.1678 106° East 382 440 15,700 2,599 Climbing Memphis Center
Sun 05:59:17 PM 36.0572 -85.8675 98° East 442 509 21,300 2,599 Climbing Atlanta Center
Sun 06:00:17 PM 36.0431 -85.6822 95° East 447 514 23,800 2,250 Climbing Atlanta Center
Sun 06:01:17 PM 36.0222 -85.5200 99° East 462 532 25,800 1,850 Climbing Atlanta Center
Sun 06:02:17 PM 35.9425 -85.3931 128° Southeast 459 528 27,500 1,900 Climbing Atlanta Center
Sun 06:03:17 PM 35.8603 -85.2686 129° Southeast 459 528 29,600 1,950 Climbing Atlanta Center
Sun 06:04:17 PM 35.7842 -85.1547 129° Southeast 466 536 31,400 1,200 Climbing Atlanta Center
Sun 06:05:17 PM 35.7017 -85.0308 129° Southeast 471 542 32,000 300 Climbing Atlanta Center
Sun 06:06:17 PM 35.6172 -84.9047 129° Southeast 477 549 32,000 900 Level Atlanta Center
Sun 06:07:17 PM 35.5344 -84.7814 129° Southeast 477 549 33,800 1,500 Climbing Atlanta Center
Sun 06:08:17 PM 35.4517 -84.6583 130° Southeast 477 549 35,000 600 Climbing Atlanta Center
Sun 06:09:17 PM 35.3667 -84.5381 131° Southeast 472 543 35,000  Level Atlanta Center
Sun 06:10:17 PM 35.2858 -84.4178 129° Southeast 472 543 35,000  Level Atlanta Center
Sun 06:11:17 PM 35.1986 -84.2931 131° Southeast 472 543 35,000 850 Level Atlanta Center
Sun 06:12:17 PM 35.1172 -84.1733 130° Southeast 467 537 36,700 1,100 Climbing Atlanta Center
Sun 06:13:17 PM 35.0339 -84.0514 130° Southeast 467 537 37,200 500 Climbing Atlanta Center
Sun 06:14:17 PM 34.9461 -83.9247 130° Southeast 473 544 37,700 800 Climbing Atlanta Center
Sun 06:15:17 PM 34.8542 -83.7806 128° Southeast 487 560 38,800 650 Climbing Atlanta Center
Sun 06:16:17 PM 34.7661 -83.6569 131° Southeast 494 568 39,000 -350 Climbing Atlanta Center
Sun 06:17:17 PM 34.6864 -83.5411 130° Southeast 494 568 38,100 -1,000 Descending Atlanta Center
Sun 06:18:17 PM 34.5897 -83.4003 130° Southeast 489 563 37,000 -1,000 Descending Atlanta Center
Sun 06:19:17 PM 34.5014 -83.2800 132° Southeast 489 563 36,100 -950 Descending Atlanta Center
Sun 06:20:17 PM 34.4150 -83.1575 131° Southeast 475 547 35,100 -900 Descending Atlanta Center
Sun 06:21:17 PM 34.3369 -83.0500 131° Southeast 480 552 34,300 -900 Descending Atlanta Center
Sun 06:22:17 PM 34.2547 -82.9281 129° Southeast 474 545 33,300 -950 Descending Atlanta Center
Sun 06:23:17 PM 34.1700 -82.8061 130° Southeast 480 552 32,400 -950 Descending Atlanta Center
Sun 06:24:17 PM 34.0811 -82.6844 131° Southeast 480 552 31,400 -950 Descending Atlanta Center
Sun 06:25:17 PM 33.9942 -82.5656 131° Southeast 480 552 30,500 -950 Descending Atlanta Center
Sun 06:26:17 PM 33.9006 -82.4319 130° Southeast 480 552 29,500 -981 Descending Atlanta Center
Sun 06:27:56 PM 33.7658 -82.2431 131° Southeast 458 527 27,900 -943 Descending Jacksonville Center
Sun 06:28:56 PM 33.6900 -82.1164 126° Southeast 468 539 27,000 -450 Descending Jacksonville Center
Sun 06:29:56 PM 33.6408 -81.9544 110° East 482 555 27,000  Level Jacksonville Center
Sun 06:30:57 PM 33.5917 -81.7981 111° Southeast 490 564 27,000 -450 Level Jacksonville Center
Sun 06:31:56 PM 33.5358 -81.6167 110° East 506 582 26,100 -958 Descending Jacksonville Center
Sun 06:32:56 PM 33.4861 -81.4656 111° Southeast 506 582 25,100 -950 Descending Jacksonville Center
Sun 06:33:56 PM 33.4428 -81.3269 111° Southeast 499 574 24,200 -1,650 Descending Jacksonville Center
Sun 06:34:56 PM 33.3928 -81.1736 111° Southeast 494 568 21,800 -2,650 Descending Jacksonville Center
Sun 06:35:56 PM 33.3469 -81.0278 111° Southeast 489 563 18,900 -3,000 Descending Jacksonville Center
Sun 06:36:56 PM 33.3031 -80.8919 111° Southeast 461 531 15,800 -2,950 Descending Jacksonville Center
Sun 06:37:56 PM 33.2614 -80.7661 112° Southeast 426 490 13,000 -2,600 Descending Jacksonville Center
Sun 06:38:56 PM 33.2239 -80.6503 111° Southeast 393 452 10,600 -1,550 Descending Jacksonville Center
Sun 06:39:56 PM 33.1906 -80.5469 111° Southeast 363 418 9,900 -850 Descending Jacksonville Center
Sun 06:40:56 PM 33.1575 -80.4561 113° Southeast 324 373 8,900 -1,150 Descending Jacksonville Center
Sun 06:41:56 PM 33.1022 -80.3981 139° Southeast 276 318 7,600 -1,450 Descending Jacksonville Center
Sun 06:42:56 PM 33.0428 -80.3453 143° Southeast 270 311 6,000 -1,450 Descending Jacksonville Center
Sun 06:43:56 PM 32.9833 -80.2947 144° Southeast 270 311 4,700 -1,150 Descending Jacksonville Center
Sun 06:44:56 PM 32.9239 -80.2494 147° Southeast 263 303 3,700 -900 Descending Jacksonville Center
Sun 06:45:56 PM 32.8667 -80.2092 149° Southeast 253 291 2,900 -800 Descending Jacksonville Center
Sun 06:46:56 PM 32.8242 -80.1733 145° Southeast 223 257 2,100 -800 Descending Jacksonville Center
Sun 06:48:00 PM 32.8888 -80.0580 79° East  Level Estimated
Sun 06:55:00 PM 32.8833 -80.0333 79° East  Level FlightAware Approximate
Sun 06:56:00 PM 32.8986 -80.0405 79° East  Level Estimated
Sun 06:57:00 PM 32.8986 -80.0405 79° East  Level Estimated
Sun 06:58:00 PM 32.8986 -80.0405 79° East  Level Estimated
Sun 06:59:00 PM 32.8986 -80.0405 79° East  Level Estimated

Login

Don't have an account? Register now (free) for customized features, flight alerts, and more!